Time;durP1;ratioP1;P1;durP2;ratioP2;P2;SDS_P1;SDS_P2;PMS_P1;PMS_P2;Temp;Humidity;BMP_temperature;BMP_pressure;BME280_temperature;BME280_humidity;BME280_pressure;Samples;Min_cycle;Max_cycle;Signal;HPM_P1;HPM_P2
2023/08/23 00:01:42;;;;;;;3.93;3.73;;;31.70;67.80;;;;;;4844076;29;20447;-83
2023/08/23 00:04:10;;;;;;;3.60;3.40;;;31.60;67.90;;;;;;4844087;29;20465;-83
2023/08/23 00:06:39;;;;;;;3.57;3.30;;;31.60;67.80;;;;;;4858712;29;20444;-83
2023/08/23 00:09:07;;;;;;;3.90;3.70;;;31.60;67.90;;;;;;4861408;29;20448;-83
2023/08/23 00:11:36;;;;;;;4.10;3.80;;;31.60;67.90;;;;;;4862708;29;20487;-83
2023/08/23 00:14:04;;;;;;;3.30;3.10;;;31.60;67.90;;;;;;4861973;29;20525;-84
2023/08/23 00:16:32;;;;;;;3.40;3.20;;;31.60;67.90;;;;;;4862011;29;20456;-85
2023/08/23 00:19:00;;;;;;;3.33;3.13;;;31.60;67.90;;;;;;4862571;29;20458;-83
2023/08/23 00:21:28;;;;;;;3.17;2.97;;;31.60;67.90;;;;;;4861542;29;20953;-83
2023/08/23 00:23:58;;;;;;;4.00;3.80;;;31.60;67.80;;;;;;4861153;29;20456;-83
2023/08/23 00:26:28;;;;;;;3.70;3.40;;;31.60;67.90;;;;;;4855243;29;20532;-83
2023/08/23 00:28:56;;;;;;;3.57;3.37;;;31.60;67.90;;;;;;4842669;29;21036;-83
2023/08/23 00:31:25;;;;;;;3.50;3.30;;;31.60;67.80;;;;;;4845060;29;20485;-83
2023/08/23 00:33:54;;;;;;;3.70;3.43;;;31.60;67.80;;;;;;4842318;29;20467;-83
2023/08/23 00:36:22;;;;;;;4.40;4.10;;;31.60;67.80;;;;;;4852839;29;20472;-83
2023/08/23 00:38:50;;;;;;;3.90;3.60;;;31.60;67.80;;;;;;4859649;29;20520;-84
2023/08/23 00:41:20;;;;;;;3.67;3.47;;;31.70;67.70;;;;;;4855870;29;20467;-84
2023/08/23 00:43:48;;;;;;;4.13;3.83;;;31.60;67.70;;;;;;4845364;29;20531;-83
2023/08/23 00:46:17;;;;;;;3.90;3.70;;;31.70;67.70;;;;;;4854691;29;20500;-83
2023/08/23 00:48:46;;;;;;;3.53;3.33;;;31.70;67.70;;;;;;4873356;29;20455;-83
2023/08/23 00:51:18;;;;;;;3.67;3.47;;;31.70;67.70;;;;;;4861671;29;20923;-83
2023/08/23 00:53:48;;;;;;;3.90;3.70;;;31.70;67.70;;;;;;4855591;29;20469;-83
2023/08/23 00:56:16;;;;;;;3.60;3.40;;;31.70;67.70;;;;;;4860305;29;20467;-83
2023/08/23 00:58:47;;;;;;;3.50;3.30;;;31.70;67.70;;;;;;4860972;29;20523;-83
2023/08/23 01:01:15;;;;;;;3.63;3.43;;;31.70;67.70;;;;;;4861775;29;20803;-83
2023/08/23 01:03:43;;;;;;;3.80;3.60;;;31.60;67.70;;;;;;4861202;29;20436;-83
2023/08/23 01:06:24;;;;;;;3.73;3.53;;;31.70;67.70;;;;;;4861484;29;20464;-83
2023/08/23 01:09:03;;;;;;;3.93;3.67;;;31.60;67.70;;;;;;4860657;29;20519;-83
2023/08/23 01:11:37;;;;;;;3.40;3.20;;;31.60;67.80;;;;;;4860973;29;20976;-83
2023/08/23 01:14:16;;;;;;;3.50;3.30;;;31.60;67.80;;;;;;4858907;29;20524;-83
2023/08/23 01:16:48;;;;;;;3.97;3.70;;;31.60;67.80;;;;;;4861482;29;20471;-84
2023/08/23 01:19:37;;;;;;;3.90;3.70;;;31.60;67.90;;;;;;4861229;29;20929;-83
2023/08/23 01:22:09;;;;;;;3.30;3.10;;;31.60;67.80;;;;;;4861032;29;20505;-84
2023/08/23 01:24:39;;;;;;;3.80;3.60;;;31.60;67.80;;;;;;4847740;29;20475;-83
2023/08/23 01:27:07;;;;;;;3.70;3.47;;;31.60;67.80;;;;;;4850543;29;20456;-84
2023/08/23 01:29:35;;;;;;;3.90;3.60;;;31.60;67.80;;;;;;4851687;29;20491;-83
2023/08/23 01:32:17;;;;;;;3.90;3.70;;;31.60;67.80;;;;;;4860314;29;21036;-85
2023/08/23 01:34:50;;;;;;;3.70;3.50;;;31.60;67.80;;;;;;4860209;29;20952;-83
2023/08/23 01:37:22;;;;;;;3.67;3.47;;;31.60;67.90;;;;;;4842078;29;20440;-83
2023/08/23 01:39:54;;;;;;;4.27;4.03;;;31.60;67.90;;;;;;4841846;29;20941;-84
2023/08/23 01:42:23;;;;;;;3.63;3.43;;;31.60;67.90;;;;;;4841548;29;20472;-84
2023/08/23 01:44:51;;;;;;;3.60;3.40;;;31.60;67.90;;;;;;4841796;29;20457;-84
2023/08/23 01:47:21;;;;;;;3.63;3.43;;;31.60;67.90;;;;;;4858941;29;20591;-83
2023/08/23 01:49:49;;;;;;;3.93;3.67;;;31.60;67.90;;;;;;4860621;29;20451;-83
2023/08/23 01:52:17;;;;;;;3.70;3.50;;;31.60;68.00;;;;;;4853908;29;20512;-84
2023/08/23 01:54:45;;;;;;;3.73;3.53;;;31.60;68.00;;;;;;4843528;29;20469;-84
2023/08/23 01:57:14;;;;;;;4.07;3.87;;;31.50;67.90;;;;;;4858790;29;20459;-84
2023/08/23 01:59:45;;;;;;;3.53;3.33;;;31.60;68.00;;;;;;4842736;29;20465;-83
2023/08/23 02:02:13;;;;;;;3.40;3.20;;;31.60;68.00;;;;;;4849135;29;20471;-85
2023/08/23 02:04:41;;;;;;;3.80;3.60;;;31.60;68.00;;;;;;4848388;29;20468;-84
2023/08/23 02:07:09;;;;;;;3.80;3.60;;;31.60;67.90;;;;;;4853299;29;20456;-83
2023/08/23 02:09:37;;;;;;;3.53;3.33;;;31.50;67.90;;;;;;4855762;29;20525;-83
2023/08/23 02:12:06;;;;;;;3.33;3.13;;;31.60;67.90;;;;;;4841352;29;20484;-83
2023/08/23 02:14:35;;;;;;;4.00;3.80;;;31.60;67.90;;;;;;4839213;29;21014;-83
2023/08/23 02:17:07;;;;;;;3.93;3.73;;;31.60;67.90;;;;;;4858285;29;20512;-83
2023/08/23 02:19:35;;;;;;;3.90;3.70;;;31.60;67.90;;;;;;4858235;29;20872;-84
2023/08/23 02:22:03;;;;;;;4.07;3.87;;;31.60;67.80;;;;;;4858760;29;20543;-84
2023/08/23 02:24:31;;;;;;;4.07;3.87;;;31.60;67.80;;;;;;4857911;29;20497;-83
2023/08/23 02:26:59;;;;;;;4.00;3.80;;;31.60;67.90;;;;;;4855654;29;20528;-84
2023/08/23 02:29:27;;;;;;;4.50;4.10;;;31.60;67.80;;;;;;4846748;29;20464;-83
2023/08/23 02:31:57;;;;;;;3.70;3.50;;;31.60;67.80;;;;;;4855767;29;20525;-84
2023/08/23 02:34:26;;;;;;;3.57;3.37;;;31.60;67.80;;;;;;4851399;29;20468;-83
2023/08/23 02:36:54;;;;;;;3.40;3.20;;;31.60;67.80;;;;;;4858104;29;20495;-84
2023/08/23 02:39:22;;;;;;;3.83;3.63;;;31.60;67.80;;;;;;4858319;29;20536;-84
2023/08/23 02:41:51;;;;;;;3.57;3.37;;;31.60;67.70;;;;;;4868622;29;20459;-83
2023/08/23 02:44:19;;;;;;;3.67;3.47;;;31.60;67.80;;;;;;4858726;29;20443;-83
2023/08/23 02:46:47;;;;;;;4.03;3.83;;;31.60;67.80;;;;;;4859726;29;20479;-83
2023/08/23 02:49:17;;;;;;;3.67;3.47;;;31.60;67.70;;;;;;4859036;29;20483;-83
2023/08/23 02:51:45;;;;;;;4.30;4.00;;;31.60;67.70;;;;;;4859243;29;20506;-83
2023/08/23 02:54:13;;;;;;;4.17;3.90;;;31.60;67.70;;;;;;4859274;29;20448;-83
2023/08/23 02:56:41;;;;;;;4.40;4.10;;;31.60;67.70;;;;;;4852946;29;20877;-84
2023/08/23 02:59:09;;;;;;;3.90;3.60;;;31.60;67.80;;;;;;4843159;29;21003;-83
2023/08/23 03:01:38;;;;;;;3.23;3.13;;;31.60;67.70;;;;;;4846966;29;20464;-83
2023/08/23 03:04:06;;;;;;;4.13;3.93;;;31.60;67.60;;;;;;4840965;29;20583;-83
2023/08/23 03:06:35;;;;;;;3.80;3.60;;;31.60;67.60;;;;;;4852522;29;20507;-83
2023/08/23 03:09:03;;;;;;;4.27;4.00;;;31.60;67.60;;;;;;4857896;29;20888;-83
2023/08/23 03:11:32;;;;;;;3.80;3.60;;;31.60;67.60;;;;;;4870332;29;20923;-85
2023/08/23 03:14:01;;;;;;;4.50;4.20;;;31.60;67.50;;;;;;4858754;29;20484;-83
2023/08/23 03:16:30;;;;;;;4.00;3.80;;;31.60;67.40;;;;;;4857804;29;20478;-83
2023/08/23 03:18:58;;;;;;;4.13;3.87;;;31.60;67.40;;;;;;4858974;29;20436;-83
2023/08/23 03:21:28;;;;;;;4.07;3.87;;;31.60;67.30;;;;;;4858400;29;20555;-83
2023/08/23 03:23:58;;;;;;;4.03;3.77;;;31.60;67.30;;;;;;4858531;29;20482;-83
2023/08/23 03:26:27;;;;;;;3.97;3.67;;;31.70;67.30;;;;;;4846373;29;20516;-83
2023/08/23 03:28:57;;;;;;;3.20;3.00;;;31.70;67.30;;;;;;4863888;29;20482;-83
2023/08/23 03:31:25;;;;;;;4.70;4.00;;;31.60;67.30;;;;;;4842269;29;20496;-83
2023/08/23 03:33:54;;;;;;;3.20;3.00;;;31.60;67.30;;;;;;4856633;29;20484;-83
2023/08/23 03:36:23;;;;;;;3.73;3.53;;;31.60;67.30;;;;;;4859995;29;20472;-83
2023/08/23 03:38:52;;;;;;;4.27;4.00;;;31.60;67.30;;;;;;4862300;29;20476;-83
2023/08/23 03:41:21;;;;;;;4.27;3.97;;;31.60;67.30;;;;;;4855774;29;20535;-83
2023/08/23 03:43:49;;;;;;;4.23;4.03;;;31.60;67.30;;;;;;4848262;29;20971;-83
2023/08/23 03:46:17;;;;;;;4.20;4.00;;;31.60;67.30;;;;;;4876978;29;20475;-83
2023/08/23 03:48:46;;;;;;;3.73;3.53;;;31.60;67.40;;;;;;4862221;29;20443;-83
2023/08/23 03:51:15;;;;;;;4.20;4.00;;;31.60;67.30;;;;;;4861498;29;20503;-83
2023/08/23 03:53:44;;;;;;;4.63;4.33;;;31.60;67.40;;;;;;4856287;29;20993;-83
2023/08/23 03:56:12;;;;;;;4.57;4.27;;;31.60;67.40;;;;;;4875371;29;20475;-84
2023/08/23 03:58:42;;;;;;;4.90;4.60;;;31.60;67.40;;;;;;4855136;29;20479;-84
2023/08/23 04:01:10;;;;;;;4.93;4.63;;;31.60;67.40;;;;;;4844247;29;20472;-83
2023/08/23 04:03:38;;;;;;;3.77;3.47;;;31.60;67.40;;;;;;4857527;29;20483;-83
2023/08/23 04:06:06;;;;;;;3.93;3.73;;;31.60;67.40;;;;;;4860821;29;20561;-83
2023/08/23 04:08:34;;;;;;;4.30;4.00;;;31.60;67.40;;;;;;4861836;29;21134;-83
2023/08/23 04:11:03;;;;;;;3.60;3.40;;;31.60;67.40;;;;;;4862128;29;20516;-84
2023/08/23 04:13:31;;;;;;;4.07;3.87;;;31.50;67.40;;;;;;4860398;29;20488;-84
2023/08/23 04:16:00;;;;;;;3.93;3.73;;;31.50;67.40;;;;;;4860641;29;20460;-83
2023/08/23 04:18:28;;;;;;;4.13;3.93;;;31.50;67.50;;;;;;4860820;29;20466;-83
2023/08/23 04:21:00;;;;;;;4.27;3.97;;;31.50;67.60;;;;;;4861775;29;20480;-83
2023/08/23 04:23:29;;;;;;;4.17;3.87;;;31.50;67.60;;;;;;4867600;29;20479;-83
2023/08/23 04:25:59;;;;;;;4.33;4.03;;;31.50;67.60;;;;;;4849821;29;20603;-83
2023/08/23 04:28:27;;;;;;;4.10;3.90;;;31.50;67.60;;;;;;4856198;29;20474;-83
2023/08/23 04:31:01;;;;;;;4.70;4.40;;;31.50;67.60;;;;;;4854707;29;20499;-84
2023/08/23 04:33:37;;;;;;;3.63;3.43;;;31.50;67.60;;;;;;4860128;29;20575;-84
2023/08/23 04:36:06;;;;;;;4.10;3.90;;;31.50;67.60;;;;;;4864206;29;20464;-83
2023/08/23 04:38:34;;;;;;;3.87;3.67;;;31.50;67.60;;;;;;4860042;29;20467;-83
2023/08/23 04:41:04;;;;;;;4.33;4.03;;;31.50;67.60;;;;;;4860757;29;20474;-84
2023/08/23 04:43:34;;;;;;;4.00;3.70;;;31.50;67.60;;;;;;4859522;29;20527;-83
2023/08/23 04:46:07;;;;;;;4.33;4.03;;;31.50;67.60;;;;;;4859431;29;20572;-83
2023/08/23 04:48:37;;;;;;;4.17;3.97;;;31.50;67.60;;;;;;4858782;29;20468;-83
2023/08/23 04:51:08;;;;;;;3.90;3.70;;;31.50;67.70;;;;;;4868429;29;20473;-83
2023/08/23 04:53:37;;;;;;;3.90;3.70;;;31.50;67.60;;;;;;4840910;29;20496;-84
2023/08/23 04:56:06;;;;;;;4.20;3.90;;;31.50;67.60;;;;;;4853881;29;20604;-84
2023/08/23 04:58:34;;;;;;;4.40;4.10;;;31.50;67.60;;;;;;4868525;29;20525;-83
2023/08/23 05:01:04;;;;;;;4.60;4.30;;;31.50;67.60;;;;;;4854592;29;20479;-83
2023/08/23 05:03:37;;;;;;;4.10;3.80;;;31.50;67.60;;;;;;4856845;29;20474;-83
2023/08/23 05:06:05;;;;;;;4.43;4.13;;;31.50;67.60;;;;;;4849432;29;20547;-83
2023/08/23 05:08:35;;;;;;;4.17;3.97;;;31.50;67.60;;;;;;4858694;29;20467;-84
2023/08/23 05:11:13;;;;;;;3.63;3.43;;;31.50;67.60;;;;;;4860066;29;21046;-84
2023/08/23 05:13:42;;;;;;;4.40;4.10;;;31.50;67.60;;;;;;4859060;29;20544;-83
2023/08/23 05:16:10;;;;;;;3.90;3.70;;;31.50;67.70;;;;;;4859519;29;20473;-83
2023/08/23 05:18:40;;;;;;;4.30;4.00;;;31.40;67.60;;;;;;4860018;29;20908;-83
2023/08/23 05:21:09;;;;;;;4.07;3.87;;;31.50;67.70;;;;;;4857884;29;21021;-83
2023/08/23 05:23:37;;;;;;;4.37;4.07;;;31.50;67.60;;;;;;4859343;29;20559;-84
2023/08/23 05:26:06;;;;;;;3.83;3.53;;;31.50;67.60;;;;;;4859610;29;20478;-83
2023/08/23 05:28:35;;;;;;;4.13;3.83;;;31.50;67.60;;;;;;4852811;29;20483;-83
2023/08/23 05:31:03;;;;;;;4.00;3.80;;;31.50;67.60;;;;;;4860602;29;20496;-83
2023/08/23 05:33:33;;;;;;;4.50;4.20;;;31.50;67.60;;;;;;4858932;29;21349;-83
2023/08/23 05:36:05;;;;;;;4.27;3.97;;;31.50;67.60;;;;;;4859113;29;20476;-83
2023/08/23 05:38:33;;;;;;;5.07;4.67;;;31.50;67.60;;;;;;4874849;29;20819;-84
2023/08/23 05:41:02;;;;;;;3.67;3.47;;;31.50;67.60;;;;;;4859097;29;20552;-83
2023/08/23 05:43:31;;;;;;;4.33;4.07;;;31.40;67.60;;;;;;4858295;29;20463;-84
2023/08/23 05:45:59;;;;;;;4.57;4.27;;;31.50;67.60;;;;;;4860756;29;20530;-83
2023/08/23 05:48:29;;;;;;;4.67;4.37;;;31.40;67.60;;;;;;4860126;29;20462;-83
2023/08/23 05:50:57;;;;;;;4.37;4.07;;;31.40;67.70;;;;;;4854059;29;20468;-85
2023/08/23 05:53:27;;;;;;;4.27;3.97;;;31.40;67.70;;;;;;4845781;29;20486;-83
2023/08/23 05:55:55;;;;;;;4.60;4.30;;;31.40;67.70;;;;;;4848996;29;20552;-84
2023/08/23 05:58:24;;;;;;;4.40;4.10;;;31.50;67.60;;;;;;4842329;29;20464;-83
2023/08/23 06:00:55;;;;;;;4.60;4.30;;;31.40;67.70;;;;;;4842244;29;20479;-83
2023/08/23 06:03:23;;;;;;;3.90;3.70;;;31.50;67.60;;;;;;4859921;29;20967;-84
2023/08/23 06:05:55;;;;;;;4.20;3.90;;;31.40;67.60;;;;;;4860009;29;20463;-84
2023/08/23 06:08:23;;;;;;;3.53;3.33;;;31.50;67.60;;;;;;4860182;29;20520;-83
2023/08/23 06:10:53;;;;;;;4.00;3.80;;;31.50;67.60;;;;;;4860006;29;20920;-83
2023/08/23 06:13:22;;;;;;;4.10;3.90;;;31.50;67.60;;;;;;4858809;29;20434;-84
2023/08/23 06:15:52;;;;;;;4.03;3.80;;;31.40;67.60;;;;;;4860169;29;20834;-83
2023/08/23 06:18:20;;;;;;;4.10;3.90;;;31.40;67.60;;;;;;4859604;29;20533;-84
2023/08/23 06:20:49;;;;;;;4.23;4.03;;;31.40;67.70;;;;;;4851710;29;20867;-83
2023/08/23 06:23:17;;;;;;;4.20;3.90;;;31.40;67.70;;;;;;4859327;29;20451;-83
2023/08/23 06:25:45;;;;;;;4.30;4.00;;;31.40;67.70;;;;;;4853739;29;20467;-83
2023/08/23 06:28:15;;;;;;;3.63;3.43;;;31.40;67.80;;;;;;4859285;29;20458;-83
2023/08/23 06:30:43;;;;;;;4.03;3.83;;;31.40;67.70;;;;;;4859157;29;20491;-83
2023/08/23 06:33:11;;;;;;;4.03;3.73;;;31.40;67.70;;;;;;4859343;29;20451;-84
2023/08/23 06:35:39;;;;;;;4.30;4.10;;;31.40;67.70;;;;;;4858952;29;20486;-83
2023/08/23 06:38:08;;;;;;;4.10;3.90;;;31.40;67.70;;;;;;4859029;29;20530;-83
2023/08/23 06:40:37;;;;;;;3.80;3.60;;;31.40;67.70;;;;;;4859476;29;20460;-83
2023/08/23 06:43:05;;;;;;;4.40;4.10;;;31.50;67.70;;;;;;4859018;29;20475;-84
2023/08/23 06:45:35;;;;;;;4.50;4.20;;;31.50;67.60;;;;;;4858129;29;20593;-83
2023/08/23 06:48:03;;;;;;;3.90;3.70;;;31.50;67.60;;;;;;4855243;29;20482;-83
2023/08/23 06:50:33;;;;;;;3.93;3.70;;;31.50;67.50;;;;;;4847642;29;20468;-84
2023/08/23 06:53:01;;;;;;;3.80;3.60;;;31.50;67.60;;;;;;4840652;29;20488;-83
2023/08/23 06:55:29;;;;;;;4.43;4.13;;;31.50;67.70;;;;;;4846674;29;20529;-83
2023/08/23 06:57:57;;;;;;;4.10;3.90;;;31.50;67.60;;;;;;4858783;29;20441;-83
2023/08/23 07:00:26;;;;;;;3.70;3.50;;;31.50;67.50;;;;;;4858514;29;20463;-83
2023/08/23 07:02:56;;;;;;;4.33;4.03;;;31.50;67.50;;;;;;4859161;29;20538;-83
2023/08/23 07:05:24;;;;;;;4.37;3.97;;;31.50;67.50;;;;;;4841083;29;20491;-84
2023/08/23 07:07:52;;;;;;;4.23;3.97;;;31.50;67.60;;;;;;4858325;29;20489;-84
2023/08/23 07:10:21;;;;;;;3.90;3.70;;;31.50;67.60;;;;;;4859492;29;20875;-84
2023/08/23 07:12:56;;;;;;;4.80;4.50;;;31.50;67.60;;;;;;4858382;29;20931;-83
2023/08/23 07:15:24;;;;;;;4.47;4.17;;;31.50;67.80;;;;;;4859107;29;20491;-83
2023/08/23 07:17:53;;;;;;;4.30;4.00;;;31.50;67.80;;;;;;4852984;29;20471;-83
2023/08/23 07:20:22;;;;;;;4.30;4.00;;;31.50;67.80;;;;;;4858942;29;20521;-83
2023/08/23 07:22:51;;;;;;;3.90;3.70;;;31.50;67.80;;;;;;4852940;29;20464;-83
2023/08/23 07:25:19;;;;;;;4.50;4.20;;;31.50;67.80;;;;;;4858911;29;20455;-84
2023/08/23 07:27:47;;;;;;;4.13;3.87;;;31.50;67.80;;;;;;4857720;29;21000;-83
2023/08/23 07:30:16;;;;;;;4.60;4.30;;;31.50;67.90;;;;;;4859037;29;21016;-85
2023/08/23 07:32:44;;;;;;;4.27;4.00;;;31.50;67.80;;;;;;4858370;29;20543;-83
2023/08/23 07:35:13;;;;;;;4.50;4.10;;;31.50;67.80;;;;;;4857811;29;20563;-85
2023/08/23 07:37:43;;;;;;;4.33;4.03;;;31.50;67.80;;;;;;4856782;29;20519;-83
2023/08/23 07:40:11;;;;;;;4.03;3.80;;;31.50;67.80;;;;;;4858931;29;20848;-84
2023/08/23 07:42:41;;;;;;;4.40;4.20;;;31.50;67.80;;;;;;4856681;29;20839;-83
2023/08/23 07:45:10;;;;;;;4.00;3.80;;;31.50;67.80;;;;;;4859441;29;20496;-83
2023/08/23 07:47:38;;;;;;;4.47;4.17;;;31.40;67.80;;;;;;4858367;29;20452;-83
2023/08/23 07:50:08;;;;;;;4.50;4.20;;;31.40;67.80;;;;;;4858791;29;21122;-82
2023/08/23 07:52:36;;;;;;;4.33;4.07;;;31.40;67.80;;;;;;4849062;29;20476;-83
2023/08/23 07:55:07;;;;;;;3.67;3.47;;;31.40;67.80;;;;;;4839296;29;20795;-84
2023/08/23 07:57:35;;;;;;;4.47;4.17;;;31.40;67.80;;;;;;4846776;29;20524;-84
2023/08/23 08:00:03;;;;;;;4.10;3.90;;;31.40;67.80;;;;;;4840372;29;20903;-83
2023/08/23 08:02:33;;;;;;;3.90;3.70;;;31.40;67.80;;;;;;4839825;29;20919;-83
2023/08/23 08:05:01;;;;;;;4.43;4.13;;;31.40;67.80;;;;;;4840337;29;20816;-84
2023/08/23 08:07:30;;;;;;;4.20;3.90;;;31.40;67.80;;;;;;4854962;29;20452;-83
2023/08/23 08:10:20;;;;;;;3.90;3.70;;;31.40;67.80;;;;;;4858635;29;20460;-83
2023/08/23 08:12:48;;;;;;;4.60;4.30;;;31.40;67.80;;;;;;4857828;29;20986;-83
2023/08/23 08:15:17;;;;;;;4.60;4.30;;;31.40;67.90;;;;;;4858631;29;20480;-83
2023/08/23 08:17:46;;;;;;;4.10;3.80;;;31.40;67.80;;;;;;4856968;29;20540;-84
2023/08/23 08:20:15;;;;;;;4.50;4.20;;;31.40;67.80;;;;;;4854469;29;20517;-85
2023/08/23 08:22:43;;;;;;;3.80;3.60;;;31.40;67.80;;;;;;4855247;29;20531;-83
2023/08/23 08:25:11;;;;;;;4.20;4.00;;;31.40;67.80;;;;;;4862033;29;20452;-83
2023/08/23 08:27:43;;;;;;;4.07;3.77;;;31.40;67.80;;;;;;4857767;29;20503;-83
2023/08/23 08:30:11;;;;;;;4.60;4.30;;;31.40;67.80;;;;;;4859554;29;20506;-83
2023/08/23 08:32:40;;;;;;;3.83;3.63;;;31.40;67.90;;;;;;4861441;29;20444;-83
2023/08/23 08:35:08;;;;;;;4.00;3.80;;;31.40;67.90;;;;;;4861366;29;20816;-83
2023/08/23 08:37:37;;;;;;;4.63;4.33;;;31.40;67.90;;;;;;4861795;29;20460;-83
2023/08/23 08:40:07;;;;;;;4.17;3.90;;;31.40;67.90;;;;;;4861847;29;20432;-83
2023/08/23 08:42:36;;;;;;;4.23;3.93;;;31.40;67.90;;;;;;4874843;29;20908;-84
2023/08/23 08:45:07;;;;;;;4.63;4.33;;;31.40;67.90;;;;;;4860531;29;20459;-84
2023/08/23 08:47:35;;;;;;;3.80;3.60;;;31.40;67.90;;;;;;4861048;29;20448;-84
2023/08/23 08:50:04;;;;;;;4.03;3.83;;;31.40;67.90;;;;;;4853749;29;20532;-83
2023/08/23 08:52:32;;;;;;;4.90;4.60;;;31.40;67.90;;;;;;4848112;29;20521;-84
2023/08/23 08:55:02;;;;;;;3.93;3.63;;;31.40;67.90;;;;;;4852780;29;20519;-84
2023/08/23 08:57:31;;;;;;;4.07;3.77;;;31.40;67.80;;;;;;4856266;29;20448;-83
2023/08/23 09:00:00;;;;;;;4.17;3.93;;;31.40;67.80;;;;;;4860947;29;20456;-84
2023/08/23 09:02:32;;;;;;;4.40;4.13;;;31.40;67.80;;;;;;4854916;29;20471;-84
2023/08/23 09:05:02;;;;;;;3.93;3.73;;;31.40;67.80;;;;;;4861254;29;20803;-84
2023/08/23 09:07:31;;;;;;;3.60;3.40;;;31.40;67.80;;;;;;4860759;29;20452;-84
2023/08/23 09:09:59;;;;;;;3.73;3.53;;;31.40;67.80;;;;;;4860256;29;20476;-83
2023/08/23 09:12:27;;;;;;;4.00;3.80;;;31.40;67.80;;;;;;4860177;29;20470;-83
2023/08/23 09:14:55;;;;;;;4.40;4.13;;;31.40;67.80;;;;;;4860872;29;20516;-83
2023/08/23 09:17:25;;;;;;;4.10;3.90;;;31.40;67.80;;;;;;4858749;29;20444;-85
2023/08/23 09:19:55;;;;;;;4.40;4.10;;;31.40;67.80;;;;;;4849455;29;20521;-83
2023/08/23 09:22:23;;;;;;;4.20;4.00;;;31.40;67.80;;;;;;4845598;29;20876;-83
2023/08/23 09:24:52;;;;;;;4.13;3.93;;;31.40;67.80;;;;;;4845289;29;20468;-83
2023/08/23 09:27:24;;;;;;;3.83;3.63;;;31.40;67.80;;;;;;4859067;29;20489;-84
2023/08/23 09:30:06;;;;;;;4.50;4.20;;;31.40;67.80;;;;;;4860126;29;20498;-83
2023/08/23 09:32:34;;;;;;;3.73;3.53;;;31.40;67.90;;;;;;4858872;29;20511;-83
2023/08/23 09:35:14;;;;;;;3.77;3.47;;;31.40;67.90;;;;;;4860954;29;20448;-84
2023/08/23 09:37:44;;;;;;;4.00;3.80;;;31.40;67.90;;;;;;4860234;29;20440;-83
2023/08/23 09:40:20;;;;;;;3.70;3.50;;;31.40;67.90;;;;;;4860243;29;20452;-83
2023/08/23 09:42:49;;;;;;;4.00;3.70;;;31.40;67.90;;;;;;4860011;29;20466;-85
2023/08/23 09:45:20;;;;;;;3.90;3.70;;;31.40;67.90;;;;;;4860873;29;20504;-83
2023/08/23 09:47:52;;;;;;;4.10;3.90;;;31.50;67.80;;;;;;4852386;29;20525;-83
2023/08/23 09:50:23;;;;;;;3.87;3.67;;;31.50;67.80;;;;;;4843019;29;20463;-83
2023/08/23 09:52:53;;;;;;;4.40;4.10;;;31.40;67.80;;;;;;4842735;29;21220;-84
2023/08/23 09:55:22;;;;;;;4.47;4.17;;;31.50;67.80;;;;;;4845013;29;20563;-83
2023/08/23 09:57:52;;;;;;;3.73;3.53;;;31.40;67.80;;;;;;4851479;29;20559;-84
2023/08/23 10:00:22;;;;;;;3.53;3.33;;;31.40;67.90;;;;;;4860135;29;20472;-84
2023/08/23 10:02:53;;;;;;;4.00;3.80;;;31.40;67.90;;;;;;4853070;29;20465;-84
2023/08/23 10:05:26;;;;;;;3.40;3.20;;;31.40;67.90;;;;;;4848225;29;20464;-83
2023/08/23 10:07:57;;;;;;;3.47;3.27;;;31.40;67.90;;;;;;4854580;29;21012;-83
2023/08/23 10:10:26;;;;;;;3.57;3.37;;;31.40;67.90;;;;;;4857556;29;20462;-83
2023/08/23 10:12:59;;;;;;;4.60;4.30;;;31.40;67.90;;;;;;4858172;29;20491;-83
2023/08/23 10:15:30;;;;;;;3.70;3.50;;;31.40;67.90;;;;;;4860091;29;20448;-83
2023/08/23 10:18:00;;;;;;;4.57;4.27;;;31.40;67.90;;;;;;4848744;29;20472;-83
2023/08/23 10:20:34;;;;;;;4.43;4.13;;;31.40;67.90;;;;;;4840956;29;20446;-84
2023/08/23 10:23:10;;;;;;;4.20;4.00;;;31.40;67.90;;;;;;4847652;29;20965;-83
2023/08/23 10:25:39;;;;;;;4.00;3.77;;;31.40;67.90;;;;;;4841344;29;20471;-83
2023/08/23 10:28:08;;;;;;;3.47;3.27;;;31.40;67.90;;;;;;4855096;29;20470;-83
2023/08/23 10:30:40;;;;;;;4.60;4.30;;;31.40;67.90;;;;;;4859734;29;20488;-83
2023/08/23 10:33:09;;;;;;;3.73;3.53;;;31.40;68.00;;;;;;4856765;29;20499;-83
2023/08/23 10:35:40;;;;;;;3.83;3.60;;;31.40;67.90;;;;;;4859851;29;20456;-83
2023/08/23 10:38:09;;;;;;;3.73;3.53;;;31.40;68.00;;;;;;4858893;29;20479;-83
2023/08/23 10:40:40;;;;;;;3.83;3.63;;;31.40;68.00;;;;;;4859372;29;20459;-84
2023/08/23 10:43:13;;;;;;;3.50;3.30;;;31.40;68.00;;;;;;4858246;29;20433;-83
2023/08/23 10:45:52;;;;;;;3.83;3.63;;;31.40;68.00;;;;;;4854231;29;20476;-84
2023/08/23 10:48:21;;;;;;;3.40;3.20;;;31.40;68.00;;;;;;4873178;29;20981;-84
2023/08/23 10:50:53;;;;;;;4.30;4.10;;;31.40;68.10;;;;;;4859785;29;21288;-83
2023/08/23 10:53:22;;;;;;;3.80;3.60;;;31.40;68.00;;;;;;4858836;29;20432;-83
2023/08/23 10:55:55;;;;;;;3.60;3.40;;;31.40;68.10;;;;;;4859643;29;20432;-83
2023/08/23 10:58:24;;;;;;;3.83;3.63;;;31.40;68.10;;;;;;4858678;29;21085;-83
2023/08/23 11:00:53;;;;;;;4.20;3.97;;;31.40;68.10;;;;;;4859549;29;20448;-84
2023/08/23 11:03:22;;;;;;;3.70;3.50;;;31.40;68.10;;;;;;4858697;29;20443;-83
2023/08/23 11:05:52;;;;;;;3.47;3.27;;;31.40;68.10;;;;;;4858522;29;20460;-83
2023/08/23 11:08:21;;;;;;;3.80;3.60;;;31.40;68.20;;;;;;4858320;29;20464;-84
2023/08/23 11:10:50;;;;;;;4.30;4.00;;;31.40;68.20;;;;;;4858968;29;20472;-83
2023/08/23 11:13:18;;;;;;;4.60;4.30;;;31.40;68.20;;;;;;4858700;29;20448;-84
2023/08/23 11:15:46;;;;;;;3.97;3.77;;;31.40;68.20;;;;;;4847067;29;20473;-83
2023/08/23 11:18:15;;;;;;;3.40;3.20;;;31.40;68.20;;;;;;4858095;29;21026;-83
2023/08/23 11:20:43;;;;;;;3.90;3.70;;;31.40;68.10;;;;;;4853079;29;20952;-83
2023/08/23 11:23:13;;;;;;;3.93;3.73;;;31.40;68.10;;;;;;4858804;29;20459;-84
2023/08/23 11:25:41;;;;;;;3.77;3.57;;;31.50;68.00;;;;;;4858627;29;20452;-84
2023/08/23 11:28:12;;;;;;;3.17;2.97;;;31.60;67.70;;;;;;4858301;29;20452;-83
2023/08/23 11:30:40;;;;;;;3.80;3.60;;;31.70;67.60;;;;;;4858738;29;21042;-84
2023/08/23 11:33:08;;;;;;;3.67;3.47;;;31.80;67.30;;;;;;4858786;29;20452;-83
2023/08/23 11:35:37;;;;;;;3.87;3.67;;;31.90;67.10;;;;;;4854853;29;20464;-84
2023/08/23 11:38:06;;;;;;;4.17;3.87;;;32.00;66.80;;;;;;4846328;29;20489;-83
2023/08/23 11:40:37;;;;;;;4.03;3.83;;;32.20;66.40;;;;;;4840533;29;20505;-83
2023/08/23 11:43:07;;;;;;;4.13;3.83;;;32.40;66.10;;;;;;4839091;29;20469;-83
2023/08/23 11:45:50;;;;;;;3.67;3.47;;;32.50;65.60;;;;;;4859151;29;20969;-83
2023/08/23 11:48:19;;;;;;;4.50;4.20;;;32.60;65.40;;;;;;4850237;29;20559;-83
2023/08/23 11:50:47;;;;;;;3.70;3.50;;;32.70;65.20;;;;;;4840529;29;20496;-83
2023/08/23 11:53:15;;;;;;;3.70;3.50;;;32.80;65.20;;;;;;4842169;29;20496;-84
2023/08/23 11:55:45;;;;;;;4.13;3.93;;;32.80;64.80;;;;;;4862967;29;20440;-83
2023/08/23 11:58:14;;;;;;;3.77;3.57;;;32.80;64.80;;;;;;4861010;29;20541;-83
2023/08/23 12:00:42;;;;;;;4.10;3.90;;;32.60;65.10;;;;;;4861985;29;20785;-83
2023/08/23 12:03:10;;;;;;;3.17;2.97;;;32.50;65.40;;;;;;4856392;29;20475;-83
2023/08/23 12:05:39;;;;;;;3.23;3.03;;;32.50;65.70;;;;;;4861180;29;20512;-84
2023/08/23 12:08:07;;;;;;;4.00;3.70;;;32.40;65.60;;;;;;4856916;29;20535;-84
2023/08/23 12:10:35;;;;;;;3.73;3.53;;;32.30;66.00;;;;;;4844034;29;20542;-84
2023/08/23 12:13:05;;;;;;;3.30;3.10;;;32.40;66.00;;;;;;4849843;29;20463;-83
2023/08/23 12:15:34;;;;;;;3.80;3.50;;;32.50;65.80;;;;;;4862034;29;20433;-84
2023/08/23 12:18:02;;;;;;;2.93;2.83;;;32.60;65.50;;;;;;4861920;29;20536;-84
2023/08/23 12:20:31;;;;;;;3.50;3.30;;;32.80;65.30;;;;;;4861934;29;20447;-83
2023/08/23 12:22:59;;;;;;;3.87;3.67;;;32.90;64.90;;;;;;4861438;29;20463;-83
2023/08/23 12:25:27;;;;;;;3.80;3.60;;;33.00;64.70;;;;;;4862046;29;20440;-83
2023/08/23 12:27:55;;;;;;;3.70;3.50;;;33.10;64.50;;;;;;4860608;29;20479;-83
2023/08/23 12:30:25;;;;;;;3.97;3.67;;;33.10;64.40;;;;;;4861821;29;20483;-84
2023/08/23 12:32:53;;;;;;;3.97;3.70;;;33.10;64.10;;;;;;4860441;29;20528;-84
2023/08/23 12:35:21;;;;;;;3.60;3.40;;;33.00;64.20;;;;;;4849613;29;20473;-83
2023/08/23 12:37:49;;;;;;;3.43;3.23;;;32.90;64.50;;;;;;4856496;29;20483;-83
2023/08/23 12:40:17;;;;;;;4.17;3.90;;;32.70;65.00;;;;;;4855182;29;20468;-83
2023/08/23 12:42:46;;;;;;;4.27;4.03;;;32.50;65.40;;;;;;4842655;29;20774;-83
2023/08/23 12:45:14;;;;;;;3.33;3.13;;;32.40;65.70;;;;;;4857588;29;20461;-83
2023/08/23 12:47:43;;;;;;;3.60;3.40;;;32.20;66.10;;;;;;4855137;29;20452;-84
2023/08/23 12:50:12;;;;;;;3.40;3.20;;;32.10;66.30;;;;;;4861477;29;20937;-83
2023/08/23 12:52:40;;;;;;;3.40;3.20;;;32.00;66.50;;;;;;4861170;29;20467;-83
2023/08/23 12:55:09;;;;;;;3.70;3.50;;;32.00;66.70;;;;;;4861282;29;20504;-84
2023/08/23 12:57:37;;;;;;;3.80;3.60;;;31.90;66.80;;;;;;4860614;29;20570;-84
2023/08/23 13:00:07;;;;;;;3.37;3.23;;;31.90;66.90;;;;;;4861849;29;20432;-83